createdAt,value
2018-07-28T00:00:00.269Z,53.63
2018-07-28T00:01:00.274Z,54.49
2018-07-28T00:02:00.005Z,54.39
2018-07-28T00:03:00.259Z,53.15
2018-07-28T00:04:00.256Z,53.05
2018-07-28T00:04:59.998Z,52.48
2018-07-28T00:06:00.270Z,52
2018-07-28T00:06:59.990Z,51.81
2018-07-28T00:08:00.249Z,51.14
2018-07-28T00:09:00.243Z,50.94
2018-07-28T00:10:00.238Z,50.17
2018-07-28T00:11:00.238Z,49.79
2018-07-28T00:12:00.236Z,48.54
2018-07-28T00:13:00.231Z,49.21
2018-07-28T00:13:59.974Z,48.74
2018-07-28T00:15:00.225Z,49.21
2018-07-28T00:16:00.226Z,49.5
2018-07-28T00:17:00.224Z,49.02
2018-07-28T00:18:00.220Z,49.02
2018-07-28T00:19:00.215Z,48.25
2018-07-28T00:20:00.213Z,48.35
2018-07-28T00:21:00.214Z,48.16
2018-07-28T00:22:00.210Z,48.54
2018-07-28T00:22:59.949Z,48.64
2018-07-28T00:24:00.202Z,49.5
2018-07-28T00:25:00.198Z,50.37
2018-07-28T00:26:00.202Z,50.56
2018-07-28T00:27:00.195Z,49.6
2018-07-28T00:28:00.193Z,49.6
2018-07-28T00:29:00.189Z,49.79
2018-07-28T00:30:00.185Z,48.25
2018-07-28T00:31:00.184Z,48.16
2018-07-28T00:32:00.179Z,48.52
2018-07-28T00:33:00.176Z,46.79
2018-07-28T00:34:00.175Z,46.22
2018-07-28T00:35:00.177Z,45.45
2018-07-28T00:36:00.166Z,44.11
2018-07-28T00:37:00.168Z,43.63
2018-07-28T00:38:00.164Z,43.53
2018-07-28T00:39:00.161Z,43.05
2018-07-28T00:40:00.159Z,42.19
2018-07-28T00:40:59.899Z,41.23
2018-07-28T00:42:00.150Z,39.7
2018-07-28T00:43:00.148Z,39.5
2018-07-28T00:44:00.145Z,39.03
2018-07-28T00:44:59.887Z,38.64
2018-07-28T00:46:00.145Z,38.16
2018-07-28T00:47:00.143Z,38.45
2018-07-28T00:48:00.141Z,36.8
2018-07-28T00:49:00.136Z,35.75
2018-07-28T00:50:00.128Z,34.79
2018-07-28T00:50:59.868Z,34.79
2018-07-28T00:52:00.125Z,34.41
2018-07-28T00:53:00.125Z,34.69
2018-07-28T00:53:59.857Z,34.59
2018-07-28T00:55:00.122Z,33.06
2018-07-28T00:56:00.112Z,31.05
2018-07-28T00:57:00.107Z,30.57
2018-07-28T00:58:00.109Z,29.9
2018-07-28T00:59:00.127Z,29.8
2018-07-28T01:00:00.116Z,29.71
2018-07-28T01:01:00.101Z,29.9
2018-07-28T01:02:00.098Z,29.8
2018-07-28T01:03:00.090Z,29.13
2018-07-28T01:04:00.089Z,29.23
2018-07-28T01:05:00.088Z,28.37
2018-07-28T01:06:00.077Z,27.5
2018-07-28T01:07:00.076Z,26.83
2018-07-28T01:08:00.073Z,24.91
2018-07-28T01:09:00.071Z,24.34
2018-07-28T01:10:00.065Z,23.57
2018-07-28T01:10:59.805Z,23.28
2018-07-28T01:12:00.065Z,23.48
2018-07-28T01:13:00.060Z,23.1
2018-07-28T01:13:59.799Z,22.89
2018-07-28T01:15:00.062Z,22.42
2018-07-28T01:16:00.046Z,21.18
2018-07-28T01:17:00.045Z,20.98
2018-07-28T01:17:59.786Z,19.93
2018-07-28T01:19:00.039Z,19.84
2018-07-28T01:20:00.034Z,18.78
2018-07-28T01:21:00.038Z,18.11
2018-07-28T01:22:00.026Z,17.72
2018-07-28T01:23:00.023Z,17.43
2018-07-28T01:24:00.022Z,17.82
2018-07-28T01:25:00.019Z,17.14
2018-07-28T01:25:59.760Z,16.57
2018-07-28T01:27:00.013Z,15.23
2018-07-28T01:28:00.010Z,13.89
2018-07-28T01:29:00.005Z,14.08
2018-07-28T01:29:59.997Z,14.75
2018-07-28T01:30:59.741Z,14.65
2018-07-28T01:31:59.993Z,14.37
2018-07-28T01:32:59.989Z,12.93
2018-07-28T01:33:59.988Z,10.92
2018-07-28T01:34:59.981Z,8.72
2018-07-28T01:35:59.724Z,7.47
2018-07-28T01:36:59.977Z,7.28
2018-07-28T01:37:59.973Z,6.8
2018-07-28T01:38:59.969Z,7.37
2018-07-28T01:39:59.968Z,7.09
2018-07-28T01:40:59.704Z,6.7
2018-07-28T01:41:59.961Z,7.18
2018-07-28T01:42:59.954Z,7.18
2018-07-28T01:43:59.692Z,6.99
2018-07-28T01:44:59.947Z,6.32
2018-07-28T01:45:59.942Z,5.74
2018-07-28T01:46:59.937Z,4.88
2018-07-28T01:47:59.937Z,4.4
2018-07-28T01:48:59.941Z,4.31
2018-07-28T01:49:59.930Z,4.21
2018-07-28T01:50:59.926Z,4.21
2018-07-28T01:51:59.922Z,4.6
2018-07-28T01:52:59.922Z,4.79
2018-07-28T01:53:59.914Z,4.88
2018-07-28T01:54:59.907Z,4.79
2018-07-28T01:55:59.649Z,3.64
2018-07-28T01:56:59.646Z,2.11
2018-07-28T01:57:59.644Z,0.86
2018-07-28T01:58:59.913Z,0.09
2018-07-28T01:59:59.895Z,0
2018-07-28T02:00:59.892Z,0
2018-07-28T02:01:59.889Z,0
2018-07-28T02:02:59.881Z,0
2018-07-28T02:03:59.876Z,0
2018-07-28T02:04:59.880Z,0
2018-07-28T02:05:59.867Z,0
2018-07-28T02:06:59.863Z,0
2018-07-28T02:07:59.861Z,0
2018-07-28T02:08:59.864Z,0
2018-07-28T02:09:59.854Z,0
2018-07-28T02:10:59.594Z,0
2018-07-28T02:11:59.847Z,0
2018-07-28T02:12:59.842Z,0
2018-07-28T02:13:59.849Z,0
2018-07-28T02:14:59.835Z,0
2018-07-28T02:15:59.830Z,0
2018-07-28T02:16:59.826Z,0
2018-07-28T02:17:59.824Z,0
2018-07-28T02:18:59.818Z,0
2018-07-28T02:19:59.816Z,0
2018-07-28T02:20:59.811Z,0
2018-07-28T02:21:59.808Z,0
2018-07-28T02:22:59.807Z,0
2018-07-28T02:23:59.802Z,0
2018-07-28T02:24:59.796Z,0
2018-07-28T02:25:59.793Z,0
2018-07-28T02:26:59.790Z,0
2018-07-28T02:27:59.787Z,0
2018-07-28T02:28:59.881Z,0
2018-07-28T02:29:59.779Z,0
2018-07-28T02:30:59.774Z,0
2018-07-28T02:31:59.772Z,0
2018-07-28T02:32:59.768Z,0
2018-07-28T02:33:59.765Z,0
2018-07-28T02:34:59.764Z,0
2018-07-28T02:35:59.762Z,0
2018-07-28T02:36:59.754Z,0
2018-07-28T02:37:59.749Z,0
2018-07-28T02:38:59.744Z,0
2018-07-28T02:39:59.746Z,0
2018-07-28T02:40:59.739Z,0
2018-07-28T02:41:59.734Z,0
2018-07-28T02:42:59.730Z,0
2018-07-28T02:43:59.723Z,0
2018-07-28T02:44:59.719Z,0
2018-07-28T02:45:59.726Z,0
2018-07-28T02:46:59.718Z,0
2018-07-28T02:47:59.713Z,0
2018-07-28T02:48:59.711Z,0
2018-07-28T02:49:59.698Z,0
2018-07-28T02:50:59.698Z,0
2018-07-28T02:51:59.693Z,0
2018-07-28T02:52:59.436Z,0
2018-07-28T02:53:59.689Z,0
2018-07-28T02:54:59.685Z,0
2018-07-28T02:55:59.686Z,0
2018-07-28T02:56:59.681Z,0
2018-07-28T02:57:59.669Z,0
2018-07-28T02:58:59.412Z,0
2018-07-28T02:59:59.662Z,0
2018-07-28T03:00:59.659Z,0
2018-07-28T03:01:59.660Z,0
2018-07-28T03:02:59.649Z,0
2018-07-28T03:03:59.654Z,0
2018-07-28T03:04:59.643Z,0
2018-07-28T03:05:59.643Z,0
2018-07-28T03:06:59.632Z,0
2018-07-28T03:07:59.376Z,0
2018-07-28T03:08:59.632Z,0
2018-07-28T03:09:59.621Z,0
2018-07-28T03:10:59.624Z,0
2018-07-28T03:11:59.357Z,0
2018-07-28T03:12:59.353Z,0
2018-07-28T03:13:59.612Z,0
2018-07-28T03:14:59.609Z,0
2018-07-28T03:15:59.595Z,0
2018-07-28T03:16:59.352Z,0
2018-07-28T03:17:59.593Z,0
2018-07-28T03:18:59.586Z,0
2018-07-28T03:19:59.593Z,0
2018-07-28T03:20:59.331Z,0
2018-07-28T03:21:59.585Z,0
2018-07-28T03:22:59.576Z,0
2018-07-28T03:23:59.568Z,0
2018-07-28T03:24:59.565Z,0
2018-07-28T03:25:59.305Z,0
2018-07-28T03:26:59.299Z,0
2018-07-28T03:27:59.551Z,0
2018-07-28T03:28:59.547Z,0
2018-07-28T03:29:59.545Z,0
2018-07-28T03:30:59.546Z,0
2018-07-28T03:31:59.537Z,0
2018-07-28T03:32:59.528Z,0
2018-07-28T03:33:59.523Z,0
2018-07-28T03:34:59.523Z,0
2018-07-28T03:35:59.518Z,0
2018-07-28T03:36:59.258Z,0
2018-07-28T03:37:59.509Z,0
2018-07-28T03:38:59.504Z,0
2018-07-28T03:39:59.501Z,0
2018-07-28T03:40:59.240Z,0
2018-07-28T03:41:59.235Z,0
2018-07-28T03:42:59.233Z,0
2018-07-28T03:43:59.484Z,0
2018-07-28T03:44:59.480Z,0
2018-07-28T03:45:59.477Z,0
2018-07-28T03:46:59.470Z,0
2018-07-28T03:47:59.212Z,0
2018-07-28T03:48:59.465Z,0
2018-07-28T03:49:59.464Z,0
2018-07-28T03:50:59.454Z,0
2018-07-28T03:51:59.450Z,0
2018-07-28T03:52:59.446Z,0
2018-07-28T03:53:59.441Z,0
2018-07-28T03:54:59.437Z,0
2018-07-28T03:55:59.177Z,0
2018-07-28T03:56:59.433Z,0
2018-07-28T03:57:59.425Z,0
2018-07-28T03:58:59.422Z,0
2018-07-28T03:59:59.421Z,0
2018-07-28T04:00:59.415Z,0
2018-07-28T04:01:59.419Z,0
2018-07-28T04:02:59.401Z,0
2018-07-28T04:03:59.404Z,0
2018-07-28T04:04:59.397Z,0
2018-07-28T04:05:59.394Z,0
2018-07-28T04:06:59.384Z,0
2018-07-28T04:07:59.381Z,0
2018-07-28T04:08:59.377Z,0
2018-07-28T04:09:59.371Z,0
2018-07-28T04:10:59.366Z,0
2018-07-28T04:11:59.112Z,0
2018-07-28T04:12:59.362Z,0
2018-07-28T04:13:59.354Z,0
2018-07-28T04:14:59.351Z,0
2018-07-28T04:15:59.348Z,0
2018-07-28T04:16:59.349Z,0
2018-07-28T04:17:59.344Z,0
2018-07-28T04:18:59.385Z,0
2018-07-28T04:19:59.075Z,0
2018-07-28T04:20:59.329Z,0
2018-07-28T04:21:59.320Z,0
2018-07-28T04:22:59.319Z,0
2018-07-28T04:23:59.316Z,0
2018-07-28T04:24:59.314Z,0
2018-07-28T04:25:59.305Z,0
2018-07-28T04:26:59.308Z,0
2018-07-28T04:27:59.303Z,0
2018-07-28T04:28:59.039Z,0
2018-07-28T04:29:59.292Z,0
2018-07-28T04:30:59.295Z,0
2018-07-28T04:31:59.336Z,0
2018-07-28T04:32:59.281Z,0
2018-07-28T04:33:59.023Z,0
2018-07-28T04:34:59.271Z,0.38
2018-07-28T04:35:59.267Z,0.09
2018-07-28T04:36:59.363Z,0.38
2018-07-28T04:37:59.002Z,0.76
2018-07-28T04:38:58.998Z,0.96
2018-07-28T04:39:59.251Z,1.25
2018-07-28T04:40:59.260Z,1.82
2018-07-28T04:41:59.241Z,2.01
2018-07-28T04:42:59.256Z,2.39
2018-07-28T04:43:59.369Z,2.49
2018-07-28T04:44:59.231Z,2.49
2018-07-28T04:45:58.972Z,2.97
2018-07-28T04:46:59.222Z,3.16
2018-07-28T04:47:59.221Z,3.35
2018-07-28T04:48:59.215Z,3.25
2018-07-28T04:49:58.955Z,3.35
2018-07-28T04:50:59.209Z,3.83
2018-07-28T04:51:59.204Z,3.55
2018-07-28T04:52:59.202Z,3.16
2018-07-28T04:53:59.196Z,3.74
2018-07-28T04:54:58.938Z,3.45
2018-07-28T04:55:59.191Z,3.83
2018-07-28T04:56:59.188Z,3.55
2018-07-28T04:57:58.926Z,3.64
2018-07-28T04:58:59.181Z,3.83
2018-07-28T04:59:59.178Z,4.31
2018-07-28T05:00:58.914Z,4.12
2018-07-28T05:01:58.912Z,4.22
2018-07-28T05:02:58.909Z,4.89
2018-07-28T05:03:59.159Z,5.27
2018-07-28T05:04:59.156Z,5.65
2018-07-28T05:05:58.897Z,6.04
2018-07-28T05:06:58.894Z,6.62
2018-07-28T05:07:59.150Z,7.1
2018-07-28T05:08:59.145Z,7.29
2018-07-28T05:09:59.142Z,7.57
2018-07-28T05:10:59.137Z,7.29
2018-07-28T05:11:59.136Z,7.19
2018-07-28T05:12:59.135Z,6.81
2018-07-28T05:13:58.872Z,6.71
2018-07-28T05:14:59.123Z,6.43
2018-07-28T05:15:59.238Z,6.23
2018-07-28T05:16:59.130Z,6.43
2018-07-28T05:17:59.119Z,7.39
2018-07-28T05:18:59.115Z,8.44
2018-07-28T05:19:58.853Z,9.59
2018-07-28T05:20:59.107Z,10.46
2018-07-28T05:21:59.104Z,11.23
2018-07-28T05:22:59.103Z,12.29
2018-07-28T05:23:59.104Z,12.76
2018-07-28T05:24:58.839Z,13.54
2018-07-28T05:25:59.094Z,14.11
2018-07-28T05:26:58.831Z,15.17
2018-07-28T05:27:59.084Z,15.84
2018-07-28T05:28:59.084Z,17.09
2018-07-28T05:29:59.083Z,17.76
2018-07-28T05:30:58.820Z,19.4
2018-07-28T05:31:59.083Z,21.71
2018-07-28T05:32:58.819Z,24.11
2018-07-28T05:33:59.069Z,26.42
2018-07-28T05:34:59.069Z,28.72
2018-07-28T05:35:59.072Z,31.03
2018-07-28T05:36:59.087Z,33.07
2018-07-28T05:37:59.063Z,34.61
2018-07-28T05:38:59.102Z,37.1
2018-07-28T05:39:59.063Z,38.28
2018-07-28T05:40:59.056Z,39.81
2018-07-28T05:41:59.049Z,40.68
2018-07-28T05:42:59.051Z,42.03
2018-07-28T05:43:59.048Z,42.89
2018-07-28T05:44:59.047Z,44.62
2018-07-28T05:45:59.050Z,46.38
2018-07-28T05:46:59.045Z,48.49
2018-07-28T05:47:59.041Z,50.71
2018-07-28T05:48:59.041Z,53.69
2018-07-28T05:49:59.050Z,53.21
2018-07-28T05:50:59.042Z,52.25
2018-07-28T05:51:59.040Z,52.44
2018-07-28T05:52:58.776Z,53.5
2018-07-28T05:53:59.033Z,53.31
2018-07-28T05:54:59.033Z,53.78
2018-07-28T05:55:59.027Z,54.08
2018-07-28T05:56:58.773Z,55.71
2018-07-28T05:57:59.028Z,56.7
2018-07-28T05:58:58.770Z,58.92
2018-07-28T05:59:59.025Z,59.11
2018-07-28T06:00:59.022Z,58.53
2018-07-28T06:01:59.023Z,59.3
2018-07-28T06:02:58.766Z,61.52
2018-07-28T06:03:59.022Z,62.57
2018-07-28T06:04:59.019Z,62.67
2018-07-28T06:05:59.031Z,67.68
2018-07-28T06:06:59.017Z,69.83
2018-07-28T06:07:59.020Z,71.56
2018-07-28T06:08:59.019Z,71.37
2018-07-28T06:09:59.017Z,71.47
2018-07-28T06:10:58.757Z,72.05
2018-07-28T06:11:59.014Z,74.45
2018-07-28T06:12:59.014Z,76.86
2018-07-28T06:13:58.757Z,86.82
2018-07-28T06:14:59.009Z,90.88
2018-07-28T06:15:59.020Z,92.51
2018-07-28T06:16:59.008Z,92.03
2018-07-28T06:17:59.010Z,93.38
2018-07-28T06:18:58.757Z,95.31
2018-07-28T06:19:59.013Z,97.28
2018-07-28T06:20:59.008Z,96.12
2018-07-28T06:21:58.790Z,95.31
2018-07-28T06:22:59.010Z,96.17
2018-07-28T06:23:59.007Z,95.02
2018-07-28T06:24:59.005Z,94.96
2018-07-28T06:25:58.830Z,93.33
2018-07-28T06:26:59.004Z,92.03
2018-07-28T06:27:59.004Z,89.18
2018-07-28T06:28:59.003Z,90.44
2018-07-28T06:29:59.004Z,94.58
2018-07-28T06:30:59.013Z,95.54
2018-07-28T06:31:59.114Z,97.38
2018-07-28T06:32:58.999Z,98.82
2018-07-28T06:33:59.004Z,96.22
2018-07-28T06:34:59.006Z,96.41
2018-07-28T06:35:59.002Z,95.64
2018-07-28T06:36:59.004Z,95.54
2018-07-28T06:37:59.057Z,97.38
2018-07-28T06:38:59.012Z,97.28
2018-07-28T06:39:58.746Z,96.08
2018-07-28T06:40:59.002Z,94.92
2018-07-28T06:41:58.750Z,97.72
2018-07-28T06:42:59.003Z,99.99
2018-07-28T06:43:58.746Z,99.99
2018-07-28T06:44:59.003Z,99.99
2018-07-28T06:45:58.749Z,99.99
2018-07-28T06:46:59.005Z,99.99
2018-07-28T06:47:59.002Z,99.99
2018-07-28T06:48:59.046Z,99.99
2018-07-28T06:49:58.754Z,99.99
2018-07-28T06:50:59.006Z,99.99
2018-07-28T06:51:59.016Z,99.99
2018-07-28T06:52:59.009Z,99.99
2018-07-28T06:53:59.011Z,99.99
2018-07-28T06:54:59.012Z,99.99
2018-07-28T06:55:58.755Z,99.99
2018-07-28T06:56:59.017Z,96.84
2018-07-28T06:57:59.014Z,93.49
2018-07-28T06:58:59.021Z,82.81
2018-07-28T06:59:58.765Z,68.15
2018-07-28T07:00:59.025Z,67.25
2018-07-28T07:01:59.027Z,61.27
2018-07-28T07:02:59.031Z,54.99
2018-07-28T07:03:59.031Z,49.78
2018-07-28T07:04:59.040Z,48.34
2018-07-28T07:05:59.039Z,51.12
2018-07-28T07:06:59.046Z,44.01
2018-07-28T07:07:59.050Z,41.88
2018-07-28T07:08:59.054Z,41.31
2018-07-28T07:09:59.058Z,41.62
2018-07-28T07:10:59.063Z,47.11
2018-07-28T07:11:59.067Z,43.9
2018-07-28T07:12:59.074Z,39.61
2018-07-28T07:13:59.078Z,40.31
2018-07-28T07:14:59.084Z,43.47
2018-07-28T07:15:59.091Z,37.8
2018-07-28T07:16:58.839Z,36.34
2018-07-28T07:17:59.109Z,33.79
2018-07-28T07:18:59.113Z,31.82
2018-07-28T07:19:59.118Z,30.17
2018-07-28T07:20:59.125Z,31.54
2018-07-28T07:21:59.136Z,31.74
2018-07-28T07:22:59.141Z,29.59
2018-07-28T07:23:59.149Z,31.76
2018-07-28T07:24:59.156Z,34.72
2018-07-28T07:25:59.163Z,30.79
2018-07-28T07:26:59.222Z,32.18
2018-07-28T07:27:59.189Z,29.34
2018-07-28T07:28:58.932Z,30.32
2018-07-28T07:29:58.941Z,28.06
2018-07-28T07:30:59.211Z,31.7
2018-07-28T07:31:59.221Z,29.93
2018-07-28T07:32:59.224Z,33.28
2018-07-28T07:33:59.237Z,29.75
2018-07-28T07:34:59.247Z,27.5
2018-07-28T07:35:58.998Z,26.51
2018-07-28T07:36:59.264Z,25.04
2018-07-28T07:37:59.279Z,24.64
2018-07-28T07:38:59.286Z,25.82
2018-07-28T07:39:59.036Z,25.89
2018-07-28T07:40:59.046Z,27.85
2018-07-28T07:41:59.322Z,28.92
2018-07-28T07:42:59.069Z,28.02
2018-07-28T07:43:59.336Z,28.91
2018-07-28T07:44:59.345Z,29.11
2018-07-28T07:45:59.355Z,29.71
2018-07-28T07:46:59.366Z,31.2
2018-07-28T07:47:59.377Z,30.21
2018-07-28T07:48:59.388Z,26.37
2018-07-28T07:49:59.395Z,27.43
2018-07-28T07:50:59.403Z,28.86
2018-07-28T07:51:59.159Z,30.88
2018-07-28T07:52:59.429Z,32.61
2018-07-28T07:53:59.651Z,34.84
2018-07-28T07:54:59.441Z,36.69
2018-07-28T07:55:59.451Z,36.4
2018-07-28T07:56:59.460Z,35.22
2018-07-28T07:57:59.474Z,36.1
2018-07-28T07:58:59.223Z,37.37
2018-07-28T07:59:59.492Z,35.81
2018-07-28T08:00:59.496Z,37.47
2018-07-28T08:01:59.508Z,39.72
2018-07-28T08:02:59.520Z,32.42
2018-07-28T08:03:59.523Z,32.84
2018-07-28T08:04:59.277Z,35.02
2018-07-28T08:05:59.541Z,30.71
2018-07-28T08:06:59.554Z,32.01
2018-07-28T08:07:59.562Z,31.5
2018-07-28T08:08:59.311Z,30.91
2018-07-28T08:09:59.576Z,31.76
2018-07-28T08:10:59.591Z,32.84
2018-07-28T08:11:59.592Z,33.31
2018-07-28T08:12:59.606Z,33.31
2018-07-28T08:13:59.610Z,34
2018-07-28T08:14:59.358Z,35.65
2018-07-28T08:15:59.625Z,35.65
2018-07-28T08:16:59.631Z,34.75
2018-07-28T08:17:59.644Z,37.98
2018-07-28T08:18:59.647Z,38.84
2018-07-28T08:19:59.655Z,36.77
2018-07-28T08:20:59.724Z,37.16
2018-07-28T08:21:59.672Z,36.46
2018-07-28T08:22:59.682Z,37.02
2018-07-28T08:23:59.687Z,37.11
2018-07-28T08:24:59.699Z,39.26
2018-07-28T08:25:59.709Z,36.82
2018-07-28T08:26:59.714Z,36.21
2018-07-28T08:27:59.722Z,37.87
2018-07-28T08:28:59.725Z,42.05
2018-07-28T08:29:59.730Z,39.8
2018-07-28T08:30:59.741Z,39.31
2018-07-28T08:31:59.749Z,38.43
2018-07-28T08:32:59.754Z,38.53
2018-07-28T08:33:59.761Z,38.92
2018-07-28T08:34:59.766Z,39.1
2018-07-28T08:35:59.777Z,38.9
2018-07-28T08:36:59.779Z,39.9
2018-07-28T08:37:59.915Z,39.9
2018-07-28T08:38:59.538Z,39.14
2018-07-28T08:40:00.054Z,38.65
2018-07-28T08:40:59.807Z,38.84
2018-07-28T08:41:59.815Z,37.21
2018-07-28T08:42:59.827Z,37.3
2018-07-28T08:43:59.828Z,38.65
2018-07-28T08:44:59.839Z,37.57
2018-07-28T08:45:59.844Z,38.55
2018-07-28T08:46:59.851Z,37.57
2018-07-28T08:47:59.859Z,39.02
2018-07-28T08:49:00.080Z,41.56
2018-07-28T08:49:59.871Z,40.09
2018-07-28T08:50:59.621Z,41.46
2018-07-28T08:51:59.884Z,39.7
2018-07-28T08:52:59.891Z,40.68
2018-07-28T08:53:59.912Z,38.63
2018-07-28T08:54:59.910Z,41.46
2018-07-28T08:55:59.912Z,42.44
2018-07-28T08:56:59.922Z,40.09
2018-07-28T08:57:59.925Z,38.34
2018-07-28T08:58:59.676Z,38.51
2018-07-28T08:59:59.935Z,38.69
2018-07-28T09:00:59.945Z,43.18
2018-07-28T09:01:59.952Z,41.81
2018-07-28T09:02:59.697Z,41.03
2018-07-28T09:03:59.976Z,39.18
2018-07-28T09:04:59.712Z,37.33
2018-07-28T09:06:00.111Z,36.16
2018-07-28T09:06:59.984Z,37.12
2018-07-28T09:07:59.988Z,39.04
2018-07-28T09:09:00.002Z,38.07
2018-07-28T09:10:00.001Z,38.54
2018-07-28T09:11:00.008Z,38.05
2018-07-28T09:12:00.015Z,38.34
2018-07-28T09:13:00.025Z,38.64
2018-07-28T09:14:00.027Z,38.71
2018-07-28T09:15:00.045Z,41.44
2018-07-28T09:16:00.038Z,42.58
2018-07-28T09:17:00.040Z,41.8
2018-07-28T09:17:59.830Z,42.85
2018-07-28T09:19:00.054Z,42.66
2018-07-28T09:20:00.063Z,42.76
2018-07-28T09:21:00.064Z,44.19
2018-07-28T09:22:00.069Z,44.78
2018-07-28T09:23:00.078Z,42.44
2018-07-28T09:24:00.085Z,41.64
2018-07-28T09:25:00.081Z,42.43
2018-07-28T09:26:00.090Z,44.75
2018-07-28T09:27:00.095Z,51.16
2018-07-28T09:28:00.099Z,53.69
2018-07-28T09:29:00.108Z,47.49
2018-07-28T09:30:00.110Z,44.29
2018-07-28T09:30:59.857Z,44.29
2018-07-28T09:32:00.129Z,44.48
2018-07-28T09:33:00.122Z,44.21
2018-07-28T09:34:00.124Z,42.46
2018-07-28T09:35:00.129Z,43.46
2018-07-28T09:36:00.133Z,43.36
2018-07-28T09:37:00.277Z,42.99
2018-07-28T09:38:00.149Z,40.39
2018-07-28T09:39:00.148Z,38.46
2018-07-28T09:39:59.896Z,39.34
2018-07-28T09:41:00.160Z,41.01
2018-07-28T09:41:59.909Z,38.57
2018-07-28T09:43:00.177Z,37.23
2018-07-28T09:44:00.173Z,35.39
2018-07-28T09:45:00.178Z,34.12
2018-07-28T09:46:00.182Z,33.64
2018-07-28T09:47:00.304Z,34.12
2018-07-28T09:48:00.195Z,35.49
2018-07-28T09:49:00.198Z,35.39
2018-07-28T09:50:00.204Z,37.45
2018-07-28T09:51:00.212Z,37.75
2018-07-28T09:52:00.218Z,36.19
2018-07-28T09:53:00.222Z,32.99
2018-07-28T09:54:00.226Z,33.46
2018-07-28T09:55:00.234Z,33.75
2018-07-28T09:56:00.239Z,35.02
2018-07-28T09:56:59.987Z,34.34
2018-07-28T09:58:00.255Z,40.78
2018-07-28T09:59:00.258Z,37.57
2018-07-28T10:00:00.263Z,33.18
2018-07-28T10:01:00.264Z,35.72
2018-07-28T10:02:00.017Z,35.72
2018-07-28T10:03:00.285Z,33.87
2018-07-28T10:04:00.030Z,32.7
2018-07-28T10:05:00.291Z,32.21
2018-07-28T10:06:00.299Z,33.58
2018-07-28T10:07:00.312Z,34.55
2018-07-28T10:08:00.312Z,35.04
2018-07-28T10:09:00.316Z,35.84
2018-07-28T10:10:00.327Z,33.3
2018-07-28T10:11:00.330Z,33.01
2018-07-28T10:12:00.331Z,33.4
2018-07-28T10:13:00.086Z,33.01
2018-07-28T10:14:00.351Z,32.42
2018-07-28T10:15:00.099Z,31.45
2018-07-28T10:16:00.360Z,31.82
2018-07-28T10:17:00.365Z,32.68
2018-07-28T10:18:00.377Z,33.75
2018-07-28T10:19:00.380Z,35.31
2018-07-28T10:20:00.129Z,36.78
2018-07-28T10:21:00.393Z,34.65
2018-07-28T10:22:00.140Z,33.48
2018-07-28T10:23:00.599Z,34.26
2018-07-28T10:24:00.410Z,36.13
2018-07-28T10:25:00.418Z,33.69
2018-07-28T10:26:00.430Z,36.04
2018-07-28T10:27:00.429Z,35.25
2018-07-28T10:28:00.437Z,36.04
2018-07-28T10:29:00.442Z,32.42
2018-07-28T10:30:00.209Z,35.45
2018-07-28T10:31:00.455Z,34.08
2018-07-28T10:32:00.211Z,30.76
2018-07-28T10:33:00.213Z,31.64
2018-07-28T10:34:00.473Z,31.54
2018-07-28T10:35:00.485Z,29.79
2018-07-28T10:36:00.230Z,28.71
2018-07-28T10:37:00.498Z,29.59
2018-07-28T10:38:00.501Z,31.62
2018-07-28T10:39:00.511Z,31.25
2018-07-28T10:40:00.515Z,33.5
2018-07-28T10:41:00.527Z,30.86
2018-07-28T10:42:00.529Z,30.66
2018-07-28T10:43:00.536Z,30.18
2018-07-28T10:44:00.548Z,31.15
2018-07-28T10:45:00.295Z,31.15
2018-07-28T10:46:00.562Z,30.76
2018-07-28T10:47:00.560Z,31.35
2018-07-28T10:48:00.565Z,31.26
2018-07-28T10:49:00.575Z,29.11
2018-07-28T10:50:00.590Z,29.6
2018-07-28T10:51:00.585Z,30.77
2018-07-28T10:52:00.749Z,31.18
2018-07-28T10:53:00.603Z,31.38
2018-07-28T10:54:00.615Z,29.53
2018-07-28T10:55:00.615Z,30.41
2018-07-28T10:56:00.624Z,30.43
2018-07-28T10:57:00.629Z,31.51
2018-07-28T10:58:00.633Z,30.82
2018-07-28T10:59:00.643Z,30.52
2018-07-28T11:00:00.738Z,29.16
2018-07-28T11:01:00.654Z,30.8
2018-07-28T11:02:00.664Z,30.3
2018-07-28T11:03:00.676Z,30.38
2018-07-28T11:04:00.684Z,32.03
2018-07-28T11:05:00.427Z,32.81
2018-07-28T11:06:00.435Z,34.18
2018-07-28T11:07:00.440Z,34.57
2018-07-28T11:08:00.704Z,33.89
2018-07-28T11:09:00.750Z,35.16
2018-07-28T11:10:00.719Z,34.57
2018-07-28T11:11:00.729Z,35.55
2018-07-28T11:12:00.731Z,35.72
2018-07-28T11:13:00.741Z,35.53
2018-07-28T11:14:00.749Z,36.11
2018-07-28T11:15:00.753Z,36.21
2018-07-28T11:16:00.501Z,34.75
2018-07-28T11:17:00.766Z,36.49
2018-07-28T11:18:00.774Z,36.57
2018-07-28T11:19:00.909Z,37.93
2018-07-28T11:20:00.531Z,37.62
2018-07-28T11:21:00.801Z,36.14
2018-07-28T11:22:00.808Z,36.04
2018-07-28T11:23:00.812Z,36.02
2018-07-28T11:24:00.815Z,37.39
2018-07-28T11:25:00.817Z,37.1
2018-07-28T11:26:00.983Z,38.36
2018-07-28T11:27:00.830Z,37.68
2018-07-28T11:28:00.839Z,37.89
2018-07-28T11:29:00.846Z,37.21
2018-07-28T11:30:00.848Z,37.23
2018-07-28T11:31:00.598Z,37.04
2018-07-28T11:32:01.027Z,36.18
2018-07-28T11:33:00.612Z,37.25
2018-07-28T11:34:00.882Z,37.45
2018-07-28T11:35:00.885Z,35.88
2018-07-28T11:36:00.631Z,36.18
2018-07-28T11:37:00.893Z,35.78
2018-07-28T11:38:01.119Z,37.35
2018-07-28T11:39:00.909Z,35.98
2018-07-28T11:40:00.909Z,36.18
2018-07-28T11:41:00.664Z,37.93
2018-07-28T11:42:00.924Z,37.46
2018-07-28T11:43:00.930Z,37.55
2018-07-28T11:44:00.933Z,37.55
2018-07-28T11:45:00.950Z,37.19
2018-07-28T11:46:01.254Z,37.77
2018-07-28T11:47:00.955Z,38.96
2018-07-28T11:48:00.967Z,37.32
2018-07-28T11:49:00.980Z,37.22
2018-07-28T11:50:00.984Z,36.15
2018-07-28T11:51:00.997Z,36.05
2018-07-28T11:52:00.998Z,37.32
2018-07-28T11:53:00.994Z,37.32
2018-07-28T11:54:01.006Z,36.73
2018-07-28T11:55:01.012Z,36.34
2018-07-28T11:56:01.017Z,35.94
2018-07-28T11:57:01.021Z,37.4
2018-07-28T11:58:01.100Z,36.23
2018-07-28T11:59:01.038Z,36.82
2018-07-28T12:00:01.048Z,36.13
2018-07-28T12:01:01.053Z,36.33
2018-07-28T12:02:01.058Z,37.7
2018-07-28T12:03:01.074Z,37.5
2018-07-28T12:04:00.819Z,37.5
2018-07-28T12:05:01.079Z,38.48
2018-07-28T12:06:01.089Z,37.21
2018-07-28T12:07:01.097Z,36.91
2018-07-28T12:08:01.102Z,36.72
2018-07-28T12:09:00.851Z,35.84
2018-07-28T12:10:01.113Z,36.13
2018-07-28T12:11:01.120Z,37.01
2018-07-28T12:12:01.135Z,36.82
2018-07-28T12:13:00.879Z,35.75
2018-07-28T12:14:01.137Z,35.36
2018-07-28T12:15:00.892Z,35.36
2018-07-28T12:16:00.898Z,35.85
2018-07-28T12:17:00.910Z,35.75
2018-07-28T12:18:01.174Z,34.68
2018-07-28T12:19:00.920Z,34.67
2018-07-28T12:20:01.194Z,35.25
2018-07-28T12:21:01.187Z,37.11
2018-07-28T12:22:00.939Z,35.74
2018-07-28T12:23:00.950Z,35.74
2018-07-28T12:24:01.389Z,36.21
2018-07-28T12:25:01.218Z,36.7
2018-07-28T12:26:01.223Z,37.46
2018-07-28T12:27:01.231Z,37.27
2018-07-28T12:28:01.245Z,37.27
2018-07-28T12:29:01.245Z,36
2018-07-28T12:30:00.994Z,36.29
2018-07-28T12:31:01.264Z,36.11
2018-07-28T12:32:01.263Z,36.21
2018-07-28T12:33:01.299Z,37.4
2018-07-28T12:34:01.283Z,37.7
2018-07-28T12:35:01.543Z,34.67
2018-07-28T12:36:01.299Z,33.31
2018-07-28T12:37:01.041Z,34.96
2018-07-28T12:38:01.049Z,34.78
2018-07-28T12:39:01.058Z,34.28
2018-07-28T12:40:01.062Z,32.71
2018-07-28T12:41:01.125Z,31.85
2018-07-28T12:42:01.385Z,32.24
2018-07-28T12:43:01.348Z,32.91
2018-07-28T12:44:01.093Z,32.91
2018-07-28T12:45:01.363Z,33.98
2018-07-28T12:46:01.366Z,33.2
2018-07-28T12:47:01.369Z,34.08
2018-07-28T12:48:01.120Z,35.82
2018-07-28T12:49:01.380Z,35.24
2018-07-28T12:50:01.134Z,34.16
2018-07-28T12:51:01.397Z,34.06
2018-07-28T12:52:01.147Z,34.26
2018-07-28T12:53:01.154Z,35.02
2018-07-28T12:54:01.159Z,34.24
2018-07-28T12:55:01.425Z,34.53
2018-07-28T12:56:01.431Z,34.53
2018-07-28T12:57:01.441Z,35.02
2018-07-28T12:58:01.190Z,35.33
2018-07-28T12:59:01.195Z,37.48
2018-07-28T13:00:01.458Z,35.82
2018-07-28T13:01:01.210Z,34.36
2018-07-28T13:02:01.215Z,34.45
2018-07-28T13:03:01.481Z,33.58
2018-07-28T13:04:01.709Z,34.16
2018-07-28T13:05:01.234Z,35.43
2018-07-28T13:06:01.499Z,34.57
2018-07-28T13:07:01.508Z,34.84
2018-07-28T13:08:01.519Z,34.96
2018-07-28T13:09:01.265Z,34.47
2018-07-28T13:10:01.551Z,34.48
2018-07-28T13:11:01.539Z,34.88
2018-07-28T13:12:01.542Z,34.78
2018-07-28T13:13:01.556Z,33.9
2018-07-28T13:14:01.559Z,32.73
2018-07-28T13:15:01.568Z,31.85
2018-07-28T13:16:01.317Z,32.82
2018-07-28T13:17:01.332Z,31.65